• Join FlightAware (Why Join?)
  • Login
  • US Flag 
04:33AM EST


 

Airport Tracker/Info


-or-


 

Live Flight TrackerFlight Track Log ✈ SWA469 ✈ 09-May-2013 ✈ KMDW - KRSW

Flight Track Log - Related Links

Times and Time Zones

All times are in EDT time to prevent confusion due to time zone crossing. See the SWA469 flight status page for this flight to view local times or setup timezone preferences in your user account.

Time Position Orientation Groundspeed Altitude Reporting Facility
EDT Latitude Longitude Course Direction KTS MPH feet Rate Location/Type
09:05AM 41.8167 -87.7667 160° South 188 216 2,100  Level Chicago TRACON
09:07AM 41.7078 -87.7142 160° South 264 304 5,800 1,200 Climbing Chicago Center
09:08AM 41.6392 -87.7544 204° Southwest 268 308 6,400 2,100 Climbing Chicago Center
09:09AM 41.5697 -87.7914 202° Southwest 268 308 10,200 2,880 Climbing Chicago Center
09:10AM 41.4889 -87.8356 202° Southwest 314 361 12,400 2,640 Climbing Chicago Center
09:11AM 41.3961 -87.8811 200° South 346 398 15,700 3,000 Climbing Chicago Center
09:12AM 41.2911 -87.8897 184° South 371 427 18,700 2,940 Climbing Chicago Center
09:13AM 41.1603 -87.8906 180° South 385 443 21,800 2,580 Climbing Chicago Center
09:14AM 41.0450 -87.8872 179° South 406 467 24,100 1,980 Climbing Chicago Center
09:15AM 40.9250 -87.8808 178° South 424 488 26,000 1,860 Climbing Chicago Center
09:16AM 40.8019 -87.8775 179° South 439 505 28,000 1,860 Climbing Chicago Center
09:17AM 40.6789 -87.8733 179° South 443 510 29,900 1,920 Climbing Chicago Center
09:18AM 40.5278 -87.8697 179° South 453 521 32,000 1,860 Climbing Chicago Center
09:19AM 40.4019 -87.8658 179° South 455 524 33,800 1,500 Climbing Chicago Center
09:20AM 40.3275 -87.8644 179° South 454 522 34,600 1,080 Climbing Indianapolis Center
09:21AM 40.2006 -87.8592 178° South 457 526 35,700 1,140 Climbing Indianapolis Center
09:22AM 40.0467 -87.8511 178° South 462 532 37,000 960 Climbing Indianapolis Center
09:23AM 39.9128 -87.8464 178° South 475 547 37,800 840 Climbing Indianapolis Center
09:24AM 39.7789 -87.8403 178° South 482 555 38,800 540 Climbing Indianapolis Center
09:25AM 39.6461 -87.8344 178° South 482 555 39,000 60 Climbing Indianapolis Center
09:26AM 39.5161 -87.8281 178° South 474 545 39,000  Level Indianapolis Center
09:27AM 39.3708 -87.8233 179° South 475 547 39,000  Level Indianapolis Center
09:28AM 39.2394 -87.8178 178° South 472 543 39,000  Level Indianapolis Center
09:29AM 39.1072 -87.8119 178° South 473 544 39,000  Level Indianapolis Center
09:30AM 38.9764 -87.8069 178° South 470 541 39,000  Level Indianapolis Center
09:32AM 38.8208 -87.7806 172° South 471 542 39,000  Level Indianapolis Center
09:33AM 38.6967 -87.7256 161° South 471 542 39,000  Level Indianapolis Center
09:34AM 38.5736 -87.6744 162° South 468 539 39,000  Level Indianapolis Center
09:35AM 38.4500 -87.6236 162° South 467 537 39,000  Level Indianapolis Center
09:36AM 38.3267 -87.5711 162° South 469 540 39,000  Level Indianapolis Center
09:37AM 38.1778 -87.5100 162° South 471 542 39,000  Level Indianapolis Center
09:38AM 38.0542 -87.4583 162° South 471 542 39,000  Level Indianapolis Center
09:39AM 37.9308 -87.4072 162° South 469 540 39,000  Level Indianapolis Center
09:40AM 37.8078 -87.3567 162° South 466 536 39,000  Level Indianapolis Center
09:41AM 37.6858 -87.3064 162° South 464 534 39,000  Level Indianapolis Center
09:41AM 37.6164 -87.2783 162° South 466 536 39,000  Level Memphis Center
09:42AM 37.4922 -87.2256 161° South 466 536 39,000  Level Memphis Center
09:43AM 37.3661 -87.1758 163° South 466 536 39,000  Level Memphis Center
09:44AM 37.2439 -87.1261 162° South 466 536 39,000  Level Memphis Center
09:45AM 37.1239 -87.0789 163° South 459 528 39,000  Level Memphis Center
09:46AM 37.0061 -87.0317 162° South 454 522 39,000  Level Memphis Center
09:47AM 36.8922 -86.9847 162° South 449 517 39,000  Level Memphis Center
09:48AM 36.7722 -86.9353 162° South 449 517 39,000  Level Memphis Center
09:49AM 36.6519 -86.8886 163° South 449 517 39,000  Level Memphis Center
09:50AM 36.5486 -86.8467 162° South 444 511 39,000  Level Memphis Center
09:51AM 36.4181 -86.7956 163° South 451 519 39,000  Level Memphis Center
09:52AM 36.3189 -86.7561 162° South 451 519 39,000  Level Memphis Center
09:53AM 36.1756 -86.6981 162° South 456 525 39,000  Level Memphis Center
09:54AM 36.0592 -86.6469 160° South 450 518 39,000  Level Memphis Center
09:55AM 35.9428 -86.5906 159° South 445 512 39,000  Level Memphis Center
09:57AM 35.7131 -86.4761 158° South 450 518 39,000  Level Atlanta Center
09:58AM 35.5972 -86.4192 158° South 450 518 39,000  Level Atlanta Center
09:59AM 35.4836 -86.3622 158° South 450 518 39,000  Level Atlanta Center
10:00AM 35.3678 -86.3056 158° South 450 518 39,000  Level Atlanta Center
10:01AM 35.2644 -86.2544 158° South 450 518 39,000  Level Atlanta Center
10:02AM 35.1383 -86.1925 158° South 444 511 39,000  Level Atlanta Center
10:03AM 35.0203 -86.1386 160° South 450 518 39,000  Level Atlanta Center
10:04AM 34.9064 -86.0778 156° South 450 518 39,000  Level Atlanta Center
10:05AM 34.7906 -86.0217 158° South 450 518 39,000  Level Atlanta Center
10:06AM 34.6725 -85.9658 159° South 450 518 39,000  Level Atlanta Center
10:07AM 34.5522 -85.9078 158° South 450 518 39,000  Level Atlanta Center
10:08AM 34.4342 -85.8522 159° South 455 524 39,000  Level Atlanta Center
10:09AM 34.3158 -85.8019 161° South 455 524 39,000  Level Atlanta Center
10:10AM 34.2000 -85.7467 158° South 455 524 39,000  Level Atlanta Center
10:11AM 34.0817 -85.6917 159° South 455 524 39,000  Level Atlanta Center
10:12AM 33.9614 -85.6342 158° South 461 531 39,000  Level Atlanta Center
10:13AM 33.8411 -85.5794 159° South 461 531 39,000  Level Atlanta Center
10:14AM 33.7206 -85.5222 158° South 461 531 39,000  Level Atlanta Center
10:15AM 33.6044 -85.4656 158° South 466 536 39,000  Level Atlanta Center
10:16AM 33.4839 -85.4111 159° South 466 536 39,000  Level Atlanta Center
10:17AM 33.3656 -85.3572 159° South 466 536 39,000  Level Atlanta Center
10:18AM 33.2472 -85.3031 159° South 466 536 39,000  Level Atlanta Center
10:19AM 33.1286 -85.2494 159° South 461 531 39,000  Level Atlanta Center
10:20AM 33.0167 -85.1908 156° South 461 531 39,000  Level Atlanta Center
10:21AM 32.8939 -85.1519 165° South 456 525 39,000  Level Atlanta Center
10:22AM 32.7711 -85.1061 163° South 456 525 39,000  Level Atlanta Center
10:23AM 32.6461 -85.0650 165° South 459 528 39,000  Level Atlanta Center
10:24AM 32.5253 -85.0242 164° South 454 522 39,000  Level Atlanta Center
10:25AM 32.4025 -84.9836 164° South 454 522 39,000  Level Atlanta Center
10:26AM 32.2797 -84.9406 163° South 454 522 39,000  Level Atlanta Center
10:27AM 32.1653 -84.9075 166° South 454 522 39,000  Level Atlanta Center
10:28AM 32.1050 -84.8864 163° South 455 524 39,000  Level Jacksonville Center
10:29AM 31.9678 -84.8369 163° South 460 529 39,000  Level Jacksonville Center
10:30AM 31.8578 -84.8053 166° South 460 529 39,000  Level Jacksonville Center
10:31AM 31.7372 -84.7661 165° South 455 524 39,000  Level Jacksonville Center
10:32AM 31.6106 -84.7222 164° South 455 524 39,000  Level Jacksonville Center
10:33AM 31.4692 -84.6756 164° South 477 549 39,000 420 Level Jacksonville Center
10:34AM 31.3403 -84.6317 164° South 477 549 39,900 720 Climbing Jacksonville Center
10:35AM 31.2136 -84.5906 164° South 475 547 40,500 540 Climbing Jacksonville Center
10:36AM 31.0847 -84.5469 164° South 475 547 41,000 240 Climbing Jacksonville Center
10:37AM 30.9536 -84.5036 164° South 475 547 41,000  Level Jacksonville Center
10:38AM 30.8311 -84.4481 159° South 475 547 41,000  Level Jacksonville Center
10:39AM 30.7131 -84.3761 152° Southeast 475 547 41,000  Level Jacksonville Center
10:40AM 30.5969 -84.3069 153° Southeast 475 547 41,000  Level Jacksonville Center
10:41AM 30.4911 -84.2450 153° Southeast 475 547 41,000  Level Jacksonville Center
10:42AM 30.3667 -84.1686 152° Southeast 465 535 41,000  Level Jacksonville Center
10:43AM 30.2483 -84.0997 153° Southeast 465 535 41,000  Level Jacksonville Center
10:44AM 30.1319 -84.0286 152° Southeast 465 535 41,000  Level Jacksonville Center
10:45AM 30.0156 -83.9600 153° Southeast 465 535 41,000  Level Jacksonville Center
10:46AM 29.8994 -83.8917 153° Southeast 470 541 41,000  Level Jacksonville Center
10:47AM 29.7808 -83.8233 153° Southeast 470 541 41,000  Level Jacksonville Center
10:48AM 29.6622 -83.7553 153° Southeast 470 541 41,000 -240 Level Jacksonville Center
10:49AM 29.5439 -83.6828 152° Southeast 470 541 40,600 -840 Descending Jacksonville Center
10:50AM 29.4272 -83.6175 154° Southeast 470 541 39,400 -1,200 Descending Jacksonville Center
10:51AM 29.3108 -83.5500 153° Southeast 470 541 38,300 -1,200 Descending Jacksonville Center
10:52AM 29.1964 -83.4800 152° Southeast 465 535 37,100 -1,140 Descending Jacksonville Center
10:53AM 29.0775 -83.4128 154° Southeast 465 535 36,100 -960 Descending Jacksonville Center
10:54AM 28.9650 -83.3458 152° Southeast 465 535 35,200 -600 Descending Jacksonville Center
10:55AM 28.8442 -83.2978 161° South 465 535 35,000 -120 Descending Jacksonville Center
10:56AM 28.7211 -83.2547 163° South 460 529 35,000 -300 Level Jacksonville Center
10:57AM 28.5158 -83.1819 163° South 458 527 34,300 -660 Descending Miami Center
10:58AM 28.3928 -83.1372 162° South 458 527 33,300 -1,800 Descending Miami Center
10:59AM 28.2717 -83.0928 162° South 453 521 30,800 -2,460 Descending Miami Center
11:00AM 28.1547 -83.0489 162° South 453 521 28,400 -1,920 Descending Miami Center
11:01AM 28.0419 -83.0050 161° South 447 514 27,000 -720 Descending Miami Center
11:02AM 27.9292 -82.9542 158° South 437 503 27,000  Level Miami Center
11:03AM 27.8208 -82.9014 157° South 432 497 27,000  Level Miami Center
11:04AM 27.7133 -82.8325 150° Southeast 437 503 27,000 -240 Level Miami Center
11:05AM 27.6094 -82.7708 152° Southeast 437 503 26,600 -720 Descending Miami Center
11:06AM 27.5056 -82.7069 151° Southeast 437 503 25,600 -1,080 Descending Miami Center
11:07AM 27.4097 -82.6508 153° Southeast 426 490 24,500 -1,740 Descending Miami Center
11:08AM 27.3019 -82.5847 151° Southeast 414 476 22,200 -2,160 Descending Miami Center
11:09AM 27.2061 -82.5286 152° Southeast 402 463 20,200 -2,040 Descending Miami Center
11:10AM 27.1142 -82.4750 153° Southeast 391 450 18,200 -1,920 Descending Miami Center
11:11AM 27.0325 -82.4269 152° Southeast 381 438 16,400 -1,980 Descending Miami Center
11:12AM 26.9428 -82.3714 151° Southeast 374 430 14,300 -2,100 Descending Miami Center
11:13AM 26.8572 -82.3208 152° Southeast 362 417 12,200 -1,740 Descending Miami Center
11:14AM 26.7717 -82.2633 149° Southeast 357 411 10,900 -960 Descending Miami Center
11:15AM 26.7008 -82.2019 142° Southeast 345 397 10,300 -1,020 Descending Miami Center
11:16AM 26.6406 -82.1389 137° Southeast 320 368 8,900 -1,800 Descending Miami Center
11:17AM 26.5822 -82.0781 137° Southeast 302 348 6,700 -2,220 Descending Miami Center
11:18AM 26.5261 -82.0106 133° Southeast 291 335 4,500 -1,500 Descending Miami Center
11:19AM 26.4803 -81.9531 132° Southeast 277 319 3,700 -1,080 Descending Miami Center
11:20AM 26.4617 -81.8872 108° East 252 290 2,400 -1,320 Descending Miami Center
11:23AM 26.5202 -81.7675 50° Northeast  Level FlightAware Approximate
11:30AM 26.5333 -81.7500 50° Northeast  Level FlightAware Approximate
11:31AM 26.5362 -81.7552 50° Northeast  Level Estimated
11:32AM 26.5333 -81.7500 50° Northeast  Level FlightAware Approximate